Terminal Aerodrome Forecast
Issued by NWS Blacksburg, VA

Home | Current Version | Previous Version | Text Only | Print | Product List | Glossary On
Versions: 1 2 3 4 5 6 7 8 9 10 11 12 13 14 15 16 17 18 19 20 21 22 23 24 25 26 27 28 29 30 31 32 33 34
000
FTUS41 KRNK 222340
TAFROA
TAF
KROA 222340Z 2300/2324 01003KT 3SM -DZ BR SCT002 OVC007
      TEMPO 2300/2304 1 1/2SM -DZ BR OVC004
     FM230400 08004KT 2SM -DZ BR SCT002 OVC004
     FM231300 00000KT 3SM BR OVC004
     FM231800 13003KT 5SM BR OVC008=

USA.gov is the U.S. government's official web portal to all federal, state and local government web resources and services.